sensor_id;sensor_type;location;lat;lon;timestamp;temperature;humidity
22383;DHT22;11359;45.802;13.530;2022-12-13T00:00:36;12.30;32.80
22383;DHT22;11359;45.802;13.530;2022-12-13T00:03:02;12.20;32.90
22383;DHT22;11359;45.802;13.530;2022-12-13T00:05:27;12.20;33.10
22383;DHT22;11359;45.802;13.530;2022-12-13T00:07:53;12.20;33.20
22383;DHT22;11359;45.802;13.530;2022-12-13T00:10:18;12.10;33.20
22383;DHT22;11359;45.802;13.530;2022-12-13T00:12:44;12.10;33.20
22383;DHT22;11359;45.802;13.530;2022-12-13T00:15:09;12.10;33.30
22383;DHT22;11359;45.802;13.530;2022-12-13T00:17:35;12.00;33.20
22383;DHT22;11359;45.802;13.530;2022-12-13T00:20:01;12.00;33.20
22383;DHT22;11359;45.802;13.530;2022-12-13T00:22:26;11.90;33.20
22383;DHT22;11359;45.802;13.530;2022-12-13T00:24:54;11.80;33.20
22383;DHT22;11359;45.802;13.530;2022-12-13T00:27:21;11.80;33.40
22383;DHT22;11359;45.802;13.530;2022-12-13T00:29:47;11.80;33.50
22383;DHT22;11359;45.802;13.530;2022-12-13T00:32:12;11.70;33.50
22383;DHT22;11359;45.802;13.530;2022-12-13T00:34:38;11.70;33.50
22383;DHT22;11359;45.802;13.530;2022-12-13T00:37:03;11.70;33.60
22383;DHT22;11359;45.802;13.530;2022-12-13T00:39:29;11.60;33.60
22383;DHT22;11359;45.802;13.530;2022-12-13T00:41:55;11.60;33.60
22383;DHT22;11359;45.802;13.530;2022-12-13T00:44:20;11.50;33.60
22383;DHT22;11359;45.802;13.530;2022-12-13T00:46:46;11.50;33.70
22383;DHT22;11359;45.802;13.530;2022-12-13T00:49:12;11.40;33.60
22383;DHT22;11359;45.802;13.530;2022-12-13T00:51:37;11.40;33.70
22383;DHT22;11359;45.802;13.530;2022-12-13T00:54:03;11.30;33.60
22383;DHT22;11359;45.802;13.530;2022-12-13T00:56:30;11.30;33.60
22383;DHT22;11359;45.802;13.530;2022-12-13T00:58:56;11.20;33.60
22383;DHT22;11359;45.802;13.530;2022-12-13T01:01:22;11.20;33.50
22383;DHT22;11359;45.802;13.530;2022-12-13T01:03:48;11.20;33.60
22383;DHT22;11359;45.802;13.530;2022-12-13T01:06:21;11.10;33.60
22383;DHT22;11359;45.802;13.530;2022-12-13T01:08:47;11.10;33.80
22383;DHT22;11359;45.802;13.530;2022-12-13T01:11:13;11.00;33.90
22383;DHT22;11359;45.802;13.530;2022-12-13T01:13:39;11.00;34.00
22383;DHT22;11359;45.802;13.530;2022-12-13T01:16:05;11.00;34.00
22383;DHT22;11359;45.802;13.530;2022-12-13T01:18:31;10.90;34.00
22383;DHT22;11359;45.802;13.530;2022-12-13T01:21:00;10.90;34.00
22383;DHT22;11359;45.802;13.530;2022-12-13T01:23:27;10.90;34.10
22383;DHT22;11359;45.802;13.530;2022-12-13T01:25:53;10.80;34.10
22383;DHT22;11359;45.802;13.530;2022-12-13T01:28:19;10.80;34.10
22383;DHT22;11359;45.802;13.530;2022-12-13T01:30:52;10.70;34.20
22383;DHT22;11359;45.802;13.530;2022-12-13T01:33:18;10.70;34.20
22383;DHT22;11359;45.802;13.530;2022-12-13T01:35:43;10.70;34.20
22383;DHT22;11359;45.802;13.530;2022-12-13T01:38:09;10.70;34.20
22383;DHT22;11359;45.802;13.530;2022-12-13T01:40:34;10.60;34.10
22383;DHT22;11359;45.802;13.530;2022-12-13T01:43:07;10.60;34.10
22383;DHT22;11359;45.802;13.530;2022-12-13T01:45:33;10.50;34.10
22383;DHT22;11359;45.802;13.530;2022-12-13T01:48:03;10.50;34.00
22383;DHT22;11359;45.802;13.530;2022-12-13T01:50:31;10.50;34.10
22383;DHT22;11359;45.802;13.530;2022-12-13T01:52:56;10.40;34.20
22383;DHT22;11359;45.802;13.530;2022-12-13T01:55:23;10.40;34.30
22383;DHT22;11359;45.802;13.530;2022-12-13T01:57:49;10.40;34.40
22383;DHT22;11359;45.802;13.530;2022-12-13T02:00:16;10.30;34.20
22383;DHT22;11359;45.802;13.530;2022-12-13T02:02:41;10.30;34.30
22383;DHT22;11359;45.802;13.530;2022-12-13T02:05:08;10.30;34.30
22383;DHT22;11359;45.802;13.530;2022-12-13T02:07:36;10.30;34.30
22383;DHT22;11359;45.802;13.530;2022-12-13T02:10:03;10.30;34.40
22383;DHT22;11359;45.802;13.530;2022-12-13T02:12:30;10.20;34.50
22383;DHT22;11359;45.802;13.530;2022-12-13T02:14:57;10.30;34.60
22383;DHT22;11359;45.802;13.530;2022-12-13T02:22:43;10.20;34.70
22383;DHT22;11359;45.802;13.530;2022-12-13T02:25:27;10.20;34.70
22383;DHT22;11359;45.802;13.530;2022-12-13T02:28:05;10.20;34.70
22383;DHT22;11359;45.802;13.530;2022-12-13T02:30:36;10.20;34.70
22383;DHT22;11359;45.802;13.530;2022-12-13T02:35:38;10.10;34.60
22383;DHT22;11359;45.802;13.530;2022-12-13T02:40:39;10.00;34.70
22383;DHT22;11359;45.802;13.530;2022-12-13T02:45:40;10.00;34.70
22383;DHT22;11359;45.802;13.530;2022-12-13T02:48:09;10.00;34.90
22383;DHT22;11359;45.802;13.530;2022-12-13T02:50:36;9.90;34.80
22383;DHT22;11359;45.802;13.530;2022-12-13T02:53:02;9.90;34.80
22383;DHT22;11359;45.802;13.530;2022-12-13T02:55:29;9.80;34.70
22383;DHT22;11359;45.802;13.530;2022-12-13T02:57:56;9.80;34.70
22383;DHT22;11359;45.802;13.530;2022-12-13T03:00:23;9.80;34.80
22383;DHT22;11359;45.802;13.530;2022-12-13T03:11:12;9.70;35.10
22383;DHT22;11359;45.802;13.530;2022-12-13T03:14:12;9.70;35.10
22383;DHT22;11359;45.802;13.530;2022-12-13T03:19:02;9.70;35.20
22383;DHT22;11359;45.802;13.530;2022-12-13T03:21:28;9.70;35.20
22383;DHT22;11359;45.802;13.530;2022-12-13T03:23:54;9.70;35.30
22383;DHT22;11359;45.802;13.530;2022-12-13T03:26:20;9.70;35.30
22383;DHT22;11359;45.802;13.530;2022-12-13T03:28:46;9.70;35.40
22383;DHT22;11359;45.802;13.530;2022-12-13T03:31:12;9.70;35.40
22383;DHT22;11359;45.802;13.530;2022-12-13T03:33:37;9.70;35.40
22383;DHT22;11359;45.802;13.530;2022-12-13T03:36:03;9.70;35.40
22383;DHT22;11359;45.802;13.530;2022-12-13T03:38:29;9.70;35.20
22383;DHT22;11359;45.802;13.530;2022-12-13T03:40:59;9.60;35.00
22383;DHT22;11359;45.802;13.530;2022-12-13T03:43:25;9.60;35.00
22383;DHT22;11359;45.802;13.530;2022-12-13T03:45:52;9.60;35.00
22383;DHT22;11359;45.802;13.530;2022-12-13T03:48:18;9.50;35.10
22383;DHT22;11359;45.802;13.530;2022-12-13T03:50:44;9.50;35.10
22383;DHT22;11359;45.802;13.530;2022-12-13T03:53:09;9.50;35.20
22383;DHT22;11359;45.802;13.530;2022-12-13T03:55:35;9.40;35.20
22383;DHT22;11359;45.802;13.530;2022-12-13T03:58:00;9.40;35.10
22383;DHT22;11359;45.802;13.530;2022-12-13T04:00:26;9.40;35.20
22383;DHT22;11359;45.802;13.530;2022-12-13T04:02:51;9.40;35.20
22383;DHT22;11359;45.802;13.530;2022-12-13T04:05:17;9.40;35.10
22383;DHT22;11359;45.802;13.530;2022-12-13T04:07:43;9.30;35.10
22383;DHT22;11359;45.802;13.530;2022-12-13T04:10:08;9.30;35.10
22383;DHT22;11359;45.802;13.530;2022-12-13T04:12:34;9.30;35.20
22383;DHT22;11359;45.802;13.530;2022-12-13T04:15:18;9.20;35.20
22383;DHT22;11359;45.802;13.530;2022-12-13T04:17:44;9.20;35.40
22383;DHT22;11359;45.802;13.530;2022-12-13T04:20:09;9.20;35.50
22383;DHT22;11359;45.802;13.530;2022-12-13T04:22:35;9.20;35.60
22383;DHT22;11359;45.802;13.530;2022-12-13T04:25:01;9.20;35.60
22383;DHT22;11359;45.802;13.530;2022-12-13T04:27:27;9.20;35.60
22383;DHT22;11359;45.802;13.530;2022-12-13T04:29:52;9.20;35.60
22383;DHT22;11359;45.802;13.530;2022-12-13T04:32:18;9.20;35.60
22383;DHT22;11359;45.802;13.530;2022-12-13T04:34:43;9.20;35.70
22383;DHT22;11359;45.802;13.530;2022-12-13T04:37:09;9.20;35.70
22383;DHT22;11359;45.802;13.530;2022-12-13T04:39:34;9.10;35.60
22383;DHT22;11359;45.802;13.530;2022-12-13T04:42:00;9.10;35.70
22383;DHT22;11359;45.802;13.530;2022-12-13T04:44:25;9.10;35.70
22383;DHT22;11359;45.802;13.530;2022-12-13T04:46:51;9.10;35.70
22383;DHT22;11359;45.802;13.530;2022-12-13T04:49:16;9.10;35.70
22383;DHT22;11359;45.802;13.530;2022-12-13T04:51:42;9.10;35.80
22383;DHT22;11359;45.802;13.530;2022-12-13T04:54:08;9.10;35.70
22383;DHT22;11359;45.802;13.530;2022-12-13T04:56:33;9.10;35.80
22383;DHT22;11359;45.802;13.530;2022-12-13T04:58:59;9.00;35.70
22383;DHT22;11359;45.802;13.530;2022-12-13T05:01:24;9.00;35.80
22383;DHT22;11359;45.802;13.530;2022-12-13T05:03:50;9.00;35.70
22383;DHT22;11359;45.802;13.530;2022-12-13T05:06:15;9.00;35.70
22383;DHT22;11359;45.802;13.530;2022-12-13T05:08:41;9.00;35.70
22383;DHT22;11359;45.802;13.530;2022-12-13T05:11:07;9.00;35.70
22383;DHT22;11359;45.802;13.530;2022-12-13T05:13:33;9.00;35.70
22383;DHT22;11359;45.802;13.530;2022-12-13T05:16:00;9.00;35.80
22383;DHT22;11359;45.802;13.530;2022-12-13T05:18:26;8.90;35.80
22383;DHT22;11359;45.802;13.530;2022-12-13T05:20:51;9.00;35.80
22383;DHT22;11359;45.802;13.530;2022-12-13T05:23:18;9.00;35.90
22383;DHT22;11359;45.802;13.530;2022-12-13T05:25:43;9.00;35.90
22383;DHT22;11359;45.802;13.530;2022-12-13T05:28:09;9.00;35.90
22383;DHT22;11359;45.802;13.530;2022-12-13T05:30:36;9.00;35.90
22383;DHT22;11359;45.802;13.530;2022-12-13T05:33:02;9.00;35.90
22383;DHT22;11359;45.802;13.530;2022-12-13T05:35:28;9.00;35.90
22383;DHT22;11359;45.802;13.530;2022-12-13T05:37:53;9.10;36.00
22383;DHT22;11359;45.802;13.530;2022-12-13T05:40:19;9.10;35.90
22383;DHT22;11359;45.802;13.530;2022-12-13T05:42:44;9.10;35.90
22383;DHT22;11359;45.802;13.530;2022-12-13T05:45:10;9.20;35.90
22383;DHT22;11359;45.802;13.530;2022-12-13T05:47:36;9.20;35.80
22383;DHT22;11359;45.802;13.530;2022-12-13T05:50:02;9.20;35.80
22383;DHT22;11359;45.802;13.530;2022-12-13T05:52:28;9.30;35.90
22383;DHT22;11359;45.802;13.530;2022-12-13T05:54:54;9.30;35.90
22383;DHT22;11359;45.802;13.530;2022-12-13T05:57:20;9.40;35.90
22383;DHT22;11359;45.802;13.530;2022-12-13T05:59:46;9.50;36.00
22383;DHT22;11359;45.802;13.530;2022-12-13T06:02:11;9.50;35.80
22383;DHT22;11359;45.802;13.530;2022-12-13T06:04:37;9.60;35.80
22383;DHT22;11359;45.802;13.530;2022-12-13T06:07:02;9.60;35.80
22383;DHT22;11359;45.802;13.530;2022-12-13T06:09:28;9.70;35.70
22383;DHT22;11359;45.802;13.530;2022-12-13T06:11:53;9.80;35.50
22383;DHT22;11359;45.802;13.530;2022-12-13T06:14:19;9.80;35.60
22383;DHT22;11359;45.802;13.530;2022-12-13T06:16:45;9.90;35.60
22383;DHT22;11359;45.802;13.530;2022-12-13T06:19:10;9.90;35.60
22383;DHT22;11359;45.802;13.530;2022-12-13T06:21:36;10.00;35.50
22383;DHT22;11359;45.802;13.530;2022-12-13T06:24:01;10.10;35.60
22383;DHT22;11359;45.802;13.530;2022-12-13T06:26:30;10.10;35.60
22383;DHT22;11359;45.802;13.530;2022-12-13T06:28:55;10.20;35.50
22383;DHT22;11359;45.802;13.530;2022-12-13T06:31:21;10.30;35.40
22383;DHT22;11359;45.802;13.530;2022-12-13T06:33:46;10.40;35.40
22383;DHT22;11359;45.802;13.530;2022-12-13T06:36:12;10.50;35.30
22383;DHT22;11359;45.802;13.530;2022-12-13T06:38:37;10.60;35.20
22383;DHT22;11359;45.802;13.530;2022-12-13T06:43:32;10.70;35.10
22383;DHT22;11359;45.802;13.530;2022-12-13T06:45:58;10.80;35.10
22383;DHT22;11359;45.802;13.530;2022-12-13T06:48:23;10.90;35.00
22383;DHT22;11359;45.802;13.530;2022-12-13T06:50:49;11.00;35.00
22383;DHT22;11359;45.802;13.530;2022-12-13T06:53:14;11.00;34.70
22383;DHT22;11359;45.802;13.530;2022-12-13T06:55:40;11.10;34.70
22383;DHT22;11359;45.802;13.530;2022-12-13T06:58:06;11.20;34.60
22383;DHT22;11359;45.802;13.530;2022-12-13T07:00:31;11.30;34.60
22383;DHT22;11359;45.802;13.530;2022-12-13T07:02:57;11.30;34.50
22383;DHT22;11359;45.802;13.530;2022-12-13T07:05:22;11.40;34.50
22383;DHT22;11359;45.802;13.530;2022-12-13T07:07:49;11.50;34.40
22383;DHT22;11359;45.802;13.530;2022-12-13T07:10:14;11.60;34.30
22383;DHT22;11359;45.802;13.530;2022-12-13T07:12:40;11.70;34.20
22383;DHT22;11359;45.802;13.530;2022-12-13T07:15:05;11.70;34.10
22383;DHT22;11359;45.802;13.530;2022-12-13T07:17:31;11.80;33.90
22383;DHT22;11359;45.802;13.530;2022-12-13T07:19:57;11.80;33.90
22383;DHT22;11359;45.802;13.530;2022-12-13T07:22:22;11.90;33.80
22383;DHT22;11359;45.802;13.530;2022-12-13T07:24:48;11.90;33.70
22383;DHT22;11359;45.802;13.530;2022-12-13T07:27:13;12.00;33.60
22383;DHT22;11359;45.802;13.530;2022-12-13T07:29:39;12.00;33.40
22383;DHT22;11359;45.802;13.530;2022-12-13T07:32:04;12.10;33.10
22383;DHT22;11359;45.802;13.530;2022-12-13T07:34:30;12.10;33.00
22383;DHT22;11359;45.802;13.530;2022-12-13T07:36:56;12.10;32.60
22383;DHT22;11359;45.802;13.530;2022-12-13T07:39:24;12.20;32.70
22383;DHT22;11359;45.802;13.530;2022-12-13T07:41:52;12.20;32.50
22383;DHT22;11359;45.802;13.530;2022-12-13T07:44:17;12.20;32.60
22383;DHT22;11359;45.802;13.530;2022-12-13T07:46:43;12.20;32.70
22383;DHT22;11359;45.802;13.530;2022-12-13T07:49:10;12.20;32.60
22383;DHT22;11359;45.802;13.530;2022-12-13T07:51:36;12.30;32.60
22383;DHT22;11359;45.802;13.530;2022-12-13T07:54:01;12.20;32.60
22383;DHT22;11359;45.802;13.530;2022-12-13T07:56:27;12.30;32.60
22383;DHT22;11359;45.802;13.530;2022-12-13T07:58:53;12.30;32.60
22383;DHT22;11359;45.802;13.530;2022-12-13T08:01:18;12.30;32.50
22383;DHT22;11359;45.802;13.530;2022-12-13T08:03:46;12.30;32.60
22383;DHT22;11359;45.802;13.530;2022-12-13T08:06:11;12.30;32.70
22383;DHT22;11359;45.802;13.530;2022-12-13T08:08:38;12.30;32.60
22383;DHT22;11359;45.802;13.530;2022-12-13T08:11:05;12.40;32.70
22383;DHT22;11359;45.802;13.530;2022-12-13T08:13:31;12.40;32.80
22383;DHT22;11359;45.802;13.530;2022-12-13T08:16:00;12.40;32.70
22383;DHT22;11359;45.802;13.530;2022-12-13T08:18:27;12.40;32.80
22383;DHT22;11359;45.802;13.530;2022-12-13T08:20:56;12.40;32.70
22383;DHT22;11359;45.802;13.530;2022-12-13T08:23:21;12.40;32.60
22383;DHT22;11359;45.802;13.530;2022-12-13T08:25:51;12.50;32.50
22383;DHT22;11359;45.802;13.530;2022-12-13T08:28:16;12.50;32.60
22383;DHT22;11359;45.802;13.530;2022-12-13T08:30:42;12.50;32.60
22383;DHT22;11359;45.802;13.530;2022-12-13T08:33:08;12.50;32.60
22383;DHT22;11359;45.802;13.530;2022-12-13T08:35:33;12.50;32.70
22383;DHT22;11359;45.802;13.530;2022-12-13T08:37:59;12.50;32.60
22383;DHT22;11359;45.802;13.530;2022-12-13T08:40:24;12.50;32.60
22383;DHT22;11359;45.802;13.530;2022-12-13T08:42:50;12.50;32.50
22383;DHT22;11359;45.802;13.530;2022-12-13T08:45:18;12.50;32.50
22383;DHT22;11359;45.802;13.530;2022-12-13T08:47:44;12.50;32.40
22383;DHT22;11359;45.802;13.530;2022-12-13T08:50:09;12.50;32.40
22383;DHT22;11359;45.802;13.530;2022-12-13T08:52:35;12.50;32.20
22383;DHT22;11359;45.802;13.530;2022-12-13T08:55:00;12.40;32.30
22383;DHT22;11359;45.802;13.530;2022-12-13T08:57:26;12.40;32.30
22383;DHT22;11359;45.802;13.530;2022-12-13T08:59:51;12.40;32.20
22383;DHT22;11359;45.802;13.530;2022-12-13T09:02:18;12.40;32.30
22383;DHT22;11359;45.802;13.530;2022-12-13T09:04:44;12.40;32.40
22383;DHT22;11359;45.802;13.530;2022-12-13T09:07:10;12.40;32.40
22383;DHT22;11359;45.802;13.530;2022-12-13T09:09:35;12.40;32.40
22383;DHT22;11359;45.802;13.530;2022-12-13T09:12:01;12.30;32.50
22383;DHT22;11359;45.802;13.530;2022-12-13T09:14:26;12.30;32.50
22383;DHT22;11359;45.802;13.530;2022-12-13T09:16:52;12.30;32.60
22383;DHT22;11359;45.802;13.530;2022-12-13T09:19:18;12.30;32.30
22383;DHT22;11359;45.802;13.530;2022-12-13T09:21:43;12.30;32.20
22383;DHT22;11359;45.802;13.530;2022-12-13T09:24:09;12.30;32.30
22383;DHT22;11359;45.802;13.530;2022-12-13T09:26:34;12.30;32.00
22383;DHT22;11359;45.802;13.530;2022-12-13T09:29:00;12.20;32.00
22383;DHT22;11359;45.802;13.530;2022-12-13T09:31:25;12.20;32.10
22383;DHT22;11359;45.802;13.530;2022-12-13T09:33:51;12.20;32.20
22383;DHT22;11359;45.802;13.530;2022-12-13T09:36:18;12.20;32.40
22383;DHT22;11359;45.802;13.530;2022-12-13T09:38:44;12.10;32.40
22383;DHT22;11359;45.802;13.530;2022-12-13T09:43:38;12.10;32.40
22383;DHT22;11359;45.802;13.530;2022-12-13T09:46:06;12.10;32.60
22383;DHT22;11359;45.802;13.530;2022-12-13T09:48:32;12.10;32.30
22383;DHT22;11359;45.802;13.530;2022-12-13T09:50:59;12.00;32.40
22383;DHT22;11359;45.802;13.530;2022-12-13T09:53:26;12.00;32.40
22383;DHT22;11359;45.802;13.530;2022-12-13T09:55:51;12.00;32.60
22383;DHT22;11359;45.802;13.530;2022-12-13T10:00:44;12.00;32.70
22383;DHT22;11359;45.802;13.530;2022-12-13T10:03:12;12.00;32.70
22383;DHT22;11359;45.802;13.530;2022-12-13T10:05:38;12.00;33.30
22383;DHT22;11359;45.802;13.530;2022-12-13T10:08:27;12.00;32.70
22383;DHT22;11359;45.802;13.530;2022-12-13T10:10:50;12.00;32.70
22383;DHT22;11359;45.802;13.530;2022-12-13T10:15:45;11.90;32.60
22383;DHT22;11359;45.802;13.530;2022-12-13T10:18:11;11.90;32.70
22383;DHT22;11359;45.802;13.530;2022-12-13T10:20:38;11.90;32.80
22383;DHT22;11359;45.802;13.530;2022-12-13T10:23:05;11.80;32.80
22383;DHT22;11359;45.802;13.530;2022-12-13T10:25:42;11.80;32.80
22383;DHT22;11359;45.802;13.530;2022-12-13T10:28:09;11.80;32.90
22383;DHT22;11359;45.802;13.530;2022-12-13T10:30:39;11.80;33.70
22383;DHT22;11359;45.802;13.530;2022-12-13T10:33:17;11.80;33.10
22383;DHT22;11359;45.802;13.530;2022-12-13T10:35:44;11.80;33.10
22383;DHT22;11359;45.802;13.530;2022-12-13T10:38:26;11.80;33.20
22383;DHT22;11359;45.802;13.530;2022-12-13T10:40:53;11.70;33.20
22383;DHT22;11359;45.802;13.530;2022-12-13T10:43:22;11.80;33.20
22383;DHT22;11359;45.802;13.530;2022-12-13T10:48:23;11.70;33.30
22383;DHT22;11359;45.802;13.530;2022-12-13T10:51:02;11.70;33.30
22383;DHT22;11359;45.802;13.530;2022-12-13T10:53:30;11.70;33.30
22383;DHT22;11359;45.802;13.530;2022-12-13T10:55:56;11.70;33.50
22383;DHT22;11359;45.802;13.530;2022-12-13T10:58:23;11.70;33.50
22383;DHT22;11359;45.802;13.530;2022-12-13T11:00:58;11.60;33.60
22383;DHT22;11359;45.802;13.530;2022-12-13T11:03:32;11.70;33.60
22383;DHT22;11359;45.802;13.530;2022-12-13T11:06:39;11.70;33.70
22383;DHT22;11359;45.802;13.530;2022-12-13T11:08:50;11.60;33.60
22383;DHT22;11359;45.802;13.530;2022-12-13T11:11:16;11.70;33.80
22383;DHT22;11359;45.802;13.530;2022-12-13T11:13:52;11.60;33.90
22383;DHT22;11359;45.802;13.530;2022-12-13T11:16:38;11.60;33.80
22383;DHT22;11359;45.802;13.530;2022-12-13T11:19:05;11.70;34.00
22383;DHT22;11359;45.802;13.530;2022-12-13T11:21:33;11.60;33.90
22383;DHT22;11359;45.802;13.530;2022-12-13T11:24:05;11.70;34.00
22383;DHT22;11359;45.802;13.530;2022-12-13T11:26:32;11.70;34.00
22383;DHT22;11359;45.802;13.530;2022-12-13T11:36:37;11.70;34.00
22383;DHT22;11359;45.802;13.530;2022-12-13T11:39:14;11.70;33.90
22383;DHT22;11359;45.802;13.530;2022-12-13T11:44:44;11.70;33.80
22383;DHT22;11359;45.802;13.530;2022-12-13T11:47:21;11.80;33.90
22383;DHT22;11359;45.802;13.530;2022-12-13T11:49:49;11.80;34.00
22383;DHT22;11359;45.802;13.530;2022-12-13T11:55:08;11.80;33.90
22383;DHT22;11359;45.802;13.530;2022-12-13T11:57:30;11.90;34.00
22383;DHT22;11359;45.802;13.530;2022-12-13T12:00:04;11.90;33.90
22383;DHT22;11359;45.802;13.530;2022-12-13T12:02:32;11.90;34.00
22383;DHT22;11359;45.802;13.530;2022-12-13T12:04:58;12.00;34.00
22383;DHT22;11359;45.802;13.530;2022-12-13T12:07:28;12.00;34.10
22383;DHT22;11359;45.802;13.530;2022-12-13T12:12:37;12.20;34.00
22383;DHT22;11359;45.802;13.530;2022-12-13T12:15:04;12.20;34.00
22383;DHT22;11359;45.802;13.530;2022-12-13T12:17:31;12.30;34.00
22383;DHT22;11359;45.802;13.530;2022-12-13T12:19:57;12.40;34.10
22383;DHT22;11359;45.802;13.530;2022-12-13T12:27:41;12.60;34.10
22383;DHT22;11359;45.802;13.530;2022-12-13T12:30:14;12.70;34.10
22383;DHT22;11359;45.802;13.530;2022-12-13T12:43:07;13.10;33.70
22383;DHT22;11359;45.802;13.530;2022-12-13T12:50:52;13.40;33.70
22383;DHT22;11359;45.802;13.530;2022-12-13T13:03:17;13.70;33.20
22383;DHT22;11359;45.802;13.530;2022-12-13T13:05:47;13.70;33.10
22383;DHT22;11359;45.802;13.530;2022-12-13T13:08:17;13.80;33.10
22383;DHT22;11359;45.802;13.530;2022-12-13T13:10:45;13.90;33.10
22383;DHT22;11359;45.802;13.530;2022-12-13T13:13:45;13.90;33.00
22383;DHT22;11359;45.802;13.530;2022-12-13T13:16:03;14.00;32.90
22383;DHT22;11359;45.802;13.530;2022-12-13T13:18:47;14.00;32.90
22383;DHT22;11359;45.802;13.530;2022-12-13T13:26:29;14.20;32.80
22383;DHT22;11359;45.802;13.530;2022-12-13T13:31:56;14.30;32.30
22383;DHT22;11359;45.802;13.530;2022-12-13T13:34:23;14.40;32.30
22383;DHT22;11359;45.802;13.530;2022-12-13T13:36:50;14.40;32.30
22383;DHT22;11359;45.802;13.530;2022-12-13T13:39:17;14.40;32.10
22383;DHT22;11359;45.802;13.530;2022-12-13T13:41:53;14.50;32.20
22383;DHT22;11359;45.802;13.530;2022-12-13T13:47:13;14.60;32.10
22383;DHT22;11359;45.802;13.530;2022-12-13T13:52:21;14.70;32.20
22383;DHT22;11359;45.802;13.530;2022-12-13T13:57:49;14.80;32.20
22383;DHT22;11359;45.802;13.530;2022-12-13T14:00:23;14.80;32.20
22383;DHT22;11359;45.802;13.530;2022-12-13T14:05:33;15.00;32.30
22383;DHT22;11359;45.802;13.530;2022-12-13T14:29:26;15.40;31.50
22383;DHT22;11359;45.802;13.530;2022-12-13T14:31:53;15.40;31.30
22383;DHT22;11359;45.802;13.530;2022-12-13T14:34:26;15.40;31.20
22383;DHT22;11359;45.802;13.530;2022-12-13T14:36:53;15.50;31.20
22383;DHT22;11359;45.802;13.530;2022-12-13T14:39:20;15.50;31.20
22383;DHT22;11359;45.802;13.530;2022-12-13T14:41:46;15.50;31.20
22383;DHT22;11359;45.802;13.530;2022-12-13T14:44:13;15.50;31.00
22383;DHT22;11359;45.802;13.530;2022-12-13T14:46:49;15.50;30.90
22383;DHT22;11359;45.802;13.530;2022-12-13T14:49:14;15.60;30.90
22383;DHT22;11359;45.802;13.530;2022-12-13T14:51:40;15.60;30.70
22383;DHT22;11359;45.802;13.530;2022-12-13T14:54:06;15.60;30.50
22383;DHT22;11359;45.802;13.530;2022-12-13T14:56:32;15.60;30.60
22383;DHT22;11359;45.802;13.530;2022-12-13T14:59:02;15.60;31.30
22383;DHT22;11359;45.802;13.530;2022-12-13T15:01:29;15.70;30.70
22383;DHT22;11359;45.802;13.530;2022-12-13T15:04:40;15.70;30.70
22383;DHT22;11359;45.802;13.530;2022-12-13T15:06:41;15.70;30.60
22383;DHT22;11359;45.802;13.530;2022-12-13T15:09:13;15.80;30.70
22383;DHT22;11359;45.802;13.530;2022-12-13T15:11:40;15.80;30.60
22383;DHT22;11359;45.802;13.530;2022-12-13T15:14:10;15.80;30.50
22383;DHT22;11359;45.802;13.530;2022-12-13T15:16:36;15.80;30.30
22383;DHT22;11359;45.802;13.530;2022-12-13T15:19:05;15.90;30.40
22383;DHT22;11359;45.802;13.530;2022-12-13T15:21:34;15.90;30.40
22383;DHT22;11359;45.802;13.530;2022-12-13T15:23:59;15.90;30.40
22383;DHT22;11359;45.802;13.530;2022-12-13T15:26:25;15.90;30.40
22383;DHT22;11359;45.802;13.530;2022-12-13T15:28:55;15.90;30.40
22383;DHT22;11359;45.802;13.530;2022-12-13T15:31:22;16.00;30.40
22383;DHT22;11359;45.802;13.530;2022-12-13T15:33:47;16.00;30.40
22383;DHT22;11359;45.802;13.530;2022-12-13T15:36:25;16.00;30.30
22383;DHT22;11359;45.802;13.530;2022-12-13T15:41:30;16.00;30.20
22383;DHT22;11359;45.802;13.530;2022-12-13T15:43:58;16.10;30.20
22383;DHT22;11359;45.802;13.530;2022-12-13T15:46:24;16.10;30.10
22383;DHT22;11359;45.802;13.530;2022-12-13T15:48:50;16.10;30.10
22383;DHT22;11359;45.802;13.530;2022-12-13T15:51:18;16.10;30.10
22383;DHT22;11359;45.802;13.530;2022-12-13T15:54:04;16.10;30.00
22383;DHT22;11359;45.802;13.530;2022-12-13T15:59:01;16.10;30.10
22383;DHT22;11359;45.802;13.530;2022-12-13T16:01:32;16.20;30.10
22383;DHT22;11359;45.802;13.530;2022-12-13T16:03:58;16.20;30.10
22383;DHT22;11359;45.802;13.530;2022-12-13T16:06:24;16.20;30.10
22383;DHT22;11359;45.802;13.530;2022-12-13T16:08:51;16.20;30.10
22383;DHT22;11359;45.802;13.530;2022-12-13T16:11:27;16.20;30.60
22383;DHT22;11359;45.802;13.530;2022-12-13T16:13:54;16.20;30.00
22383;DHT22;11359;45.802;13.530;2022-12-13T16:16:40;16.20;30.00
22383;DHT22;11359;45.802;13.530;2022-12-13T16:19:11;16.20;30.00
22383;DHT22;11359;45.802;13.530;2022-12-13T16:21:37;16.20;30.00
22383;DHT22;11359;45.802;13.530;2022-12-13T16:24:03;16.20;30.00
22383;DHT22;11359;45.802;13.530;2022-12-13T16:26:28;16.20;29.90
22383;DHT22;11359;45.802;13.530;2022-12-13T16:28:57;16.20;29.90
22383;DHT22;11359;45.802;13.530;2022-12-13T16:31:25;16.20;29.90
22383;DHT22;11359;45.802;13.530;2022-12-13T16:33:52;16.20;29.90
22383;DHT22;11359;45.802;13.530;2022-12-13T16:36:17;16.20;29.80
22383;DHT22;11359;45.802;13.530;2022-12-13T16:38:43;16.20;29.80
22383;DHT22;11359;45.802;13.530;2022-12-13T16:41:08;16.20;29.80
22383;DHT22;11359;45.802;13.530;2022-12-13T16:43:36;16.20;29.90
22383;DHT22;11359;45.802;13.530;2022-12-13T16:46:02;16.20;30.00
22383;DHT22;11359;45.802;13.530;2022-12-13T16:48:29;16.20;30.00
22383;DHT22;11359;45.802;13.530;2022-12-13T16:50:55;16.20;30.00
22383;DHT22;11359;45.802;13.530;2022-12-13T16:53:20;16.30;30.00
22383;DHT22;11359;45.802;13.530;2022-12-13T16:55:46;16.30;30.00
22383;DHT22;11359;45.802;13.530;2022-12-13T16:58:13;16.30;30.00
22383;DHT22;11359;45.802;13.530;2022-12-13T17:00:39;16.30;30.00
22383;DHT22;11359;45.802;13.530;2022-12-13T17:03:10;16.30;30.00
22383;DHT22;11359;45.802;13.530;2022-12-13T17:05:36;16.40;30.10
22383;DHT22;11359;45.802;13.530;2022-12-13T17:08:02;16.40;30.10
22383;DHT22;11359;45.802;13.530;2022-12-13T17:10:28;16.40;30.00
22383;DHT22;11359;45.802;13.530;2022-12-13T17:12:53;16.40;30.00
22383;DHT22;11359;45.802;13.530;2022-12-13T17:15:19;16.40;30.00
22383;DHT22;11359;45.802;13.530;2022-12-13T17:17:45;16.40;30.00
22383;DHT22;11359;45.802;13.530;2022-12-13T17:20:11;16.50;30.00
22383;DHT22;11359;45.802;13.530;2022-12-13T17:22:39;16.50;30.00
22383;DHT22;11359;45.802;13.530;2022-12-13T17:25:04;16.50;30.00
22383;DHT22;11359;45.802;13.530;2022-12-13T17:27:30;16.50;30.00
22383;DHT22;11359;45.802;13.530;2022-12-13T17:29:56;16.50;29.90